Time;durP1;ratioP1;P1;durP2;ratioP2;P2;SDS_P1;SDS_P2;PMS_P1;PMS_P2;Temp;Humidity;BMP_temperature;BMP_pressure;BME280_temperature;BME280_humidity;BME280_pressure;Samples;Min_cycle;Max_cycle;Signal;HPM_P1;HPM_P2
2022/06/14 00:00:54;;;;;;;;;;;;;;;;;;5033545;28;20380;-74
2022/06/14 00:03:20;;;;;;;;;;;;;;;;;;5033946;28;19913;-74
2022/06/14 00:05:45;;;;;;;;;;;;;;;;;;5033736;28;19916;-74
2022/06/14 00:08:11;;;;;;;;;;;;;;;;;;5033725;28;19909;-73
2022/06/14 00:10:37;;;;;;;;;;;;;;;;;;5033448;28;20020;-74
2022/06/14 00:13:03;;;;;;;;;;;;;;;;;;5033954;28;19948;-74
2022/06/14 00:15:29;;;;;;;;;;;;;;;;;;5033625;28;19909;-73
2022/06/14 00:17:55;;;;;;;;;;;;;;;;;;5033336;28;19910;-74
2022/06/14 00:20:21;;;;;;;;;;;;;;;;;;5033325;28;19965;-73
2022/06/14 00:22:47;;;;;;;;;;;;;;;;;;5033526;28;19919;-74
2022/06/14 00:25:13;;;;;;;;;;;;;;;;;;5033323;28;20426;-73
2022/06/14 00:27:38;;;;;;;;;;;;;;;;;;5033348;28;19909;-73
2022/06/14 00:30:04;;;;;;;;;;;;;;;;;;5033275;28;20293;-74
2022/06/14 00:32:30;;;;;;;;;;;;;;;;;;5033257;28;20043;-73
2022/06/14 00:34:56;;;;;;;;;;;;;;;;;;5033514;28;19909;-73
2022/06/14 00:37:22;;;;;;;;;;;;;;;;;;5033196;28;19956;-73
2022/06/14 00:39:48;;;;;;;;;;;;;;;;;;5033275;28;20008;-74
2022/06/14 00:42:14;;;;;;;;;;;;;;;;;;5035067;28;20301;-74
2022/06/14 00:44:40;;;;;;;;;;;;;;;;;;5037080;28;19960;-74
2022/06/14 00:47:06;;;;;;;;;;;;;;;;;;5036756;28;19909;-74
2022/06/14 00:49:31;;;;;;;;;;;;;;;;;;5036694;28;19999;-73
2022/06/14 00:51:57;;;;;;;;;;;;;;;;;;5036915;28;19919;-74
2022/06/14 00:54:25;;;;;;;;;;;;;;;;;;5036603;28;19909;-74
2022/06/14 00:56:51;;;;;;;;;;;;;;;;;;5035135;28;19909;-74
2022/06/14 00:59:17;;;;;;;;;;;;;;;;;;5035292;28;20323;-74
2022/06/14 01:01:43;;;;;;;;;;;;;;;;;;5037043;28;19963;-73
2022/06/14 01:04:09;;;;;;;;;;;;;;;;;;5036399;28;19913;-74
2022/06/14 01:06:35;;;;;;;;;;;;;;;;;;5037041;28;20246;-73
2022/06/14 01:09:00;;;;;;;;;;;;;;;;;;5035088;28;19917;-75
2022/06/14 01:11:26;;;;;;;;;;;;;;;;;;5036323;28;20312;-74
2022/06/14 01:13:52;;;;;;;;;;;;;;;;;;5036781;28;19955;-74
2022/06/14 01:16:18;;;;;;;;;;;;;;;;;;5036213;28;20003;-74
2022/06/14 01:18:45;;;;;;;;;;;;;;;;;;5036433;28;19909;-74
2022/06/14 01:21:11;;;;;;;;;;;;;;;;;;5036412;28;19941;-73
2022/06/14 01:23:36;;;;;;;;;;;;;;;;;;5036548;28;19959;-73
2022/06/14 01:26:02;;;;;;;;;;;;;;;;;;5036018;28;19955;-75
2022/06/14 01:28:28;;;;;;;;;;;;;;;;;;5034695;28;19915;-73
2022/06/14 01:30:54;;;;;;;;;;;;;;;;;;5036446;28;19909;-73
2022/06/14 01:33:20;;;;;;;;;;;;;;;;;;5036182;28;19909;-73
2022/06/14 01:35:47;;;;;;;;;;;;;;;;;;5036108;28;19909;-75
2022/06/14 01:38:13;;;;;;;;;;;;;;;;;;5035701;28;19977;-74
2022/06/14 01:40:39;;;;;;;;;;;;;;;;;;5035765;28;20010;-74
2022/06/14 01:43:05;;;;;;;;;;;;;;;;;;5036208;28;19921;-74
2022/06/14 01:45:31;;;;;;;;;;;;;;;;;;5035663;28;19916;-73
2022/06/14 01:47:57;;;;;;;;;;;;;;;;;;5034364;28;20320;-72
2022/06/14 01:53:07;;;;;;;;;;;;;;;;;;5035806;28;20277;-74
2022/06/14 01:55:34;;;;;;;;;;;;;;;;;;5035508;28;19913;-74
2022/06/14 01:58:00;;;;;;;;;;;;;;;;;;5034161;28;20388;-72
2022/06/14 02:00:26;;;;;;;;;;;;;;;;;;5034089;28;19909;-73
2022/06/14 02:02:52;;;;;;;;;;;;;;;;;;5035287;28;19913;-74
2022/06/14 02:05:18;;;;;;;;;;;;;;;;;;5035263;28;19913;-74
2022/06/14 02:07:44;;;;;;;;;;;;;;;;;;5033977;28;19971;-73
2022/06/14 02:10:11;;;;;;;;;;;;;;;;;;5035462;28;19916;-74
2022/06/14 02:12:37;;;;;;;;;;;;;;;;;;5035421;28;20289;-74
2022/06/14 02:15:03;;;;;;;;;;;;;;;;;;5035391;28;19909;-74
2022/06/14 02:17:28;;;;;;;;;;;;;;;;;;5035101;28;19921;-72
2022/06/14 02:19:57;;;;;;;;;;;;;;;;;;5035023;28;19909;-73
2022/06/14 02:22:23;;;;;;;;;;;;;;;;;;5034913;28;20439;-73
2022/06/14 02:24:49;;;;;;;;;;;;;;;;;;5034975;28;19955;-74
2022/06/14 02:27:14;;;;;;;;;;;;;;;;;;5035171;28;19909;-74
2022/06/14 02:29:40;;;;;;;;;;;;;;;;;;5035119;28;19909;-73
2022/06/14 02:32:06;;;;;;;;;;;;;;;;;;5033531;28;19959;-73
2022/06/14 02:34:32;;;;;;;;;;;;;;;;;;5034770;28;20364;-74
2022/06/14 02:36:58;;;;;;;;;;;;;;;;;;5034651;28;19913;-74
2022/06/14 02:39:24;;;;;;;;;;;;;;;;;;5034654;28;20361;-74
2022/06/14 02:41:50;;;;;;;;;;;;;;;;;;5034141;28;19918;-74
2022/06/14 02:44:16;;;;;;;;;;;;;;;;;;5033281;28;19909;-73
2022/06/14 02:46:41;;;;;;;;;;;;;;;;;;5035103;28;19916;-73
2022/06/14 02:49:07;;;;;;;;;;;;;;;;;;5034481;28;19913;-74
2022/06/14 02:51:33;;;;;;;;;;;;;;;;;;5034709;28;19910;-74
2022/06/14 02:54:00;;;;;;;;;;;;;;;;;;5034400;28;19913;-74
2022/06/14 02:56:26;;;;;;;;;;;;;;;;;;5034335;28;20391;-73
2022/06/14 02:58:51;;;;;;;;;;;;;;;;;;5034848;28;20004;-73
2022/06/14 03:01:17;;;;;;;;;;;;;;;;;;5034292;28;19979;-74
2022/06/14 03:03:44;;;;;;;;;;;;;;;;;;5033248;28;19967;-74
2022/06/14 03:06:10;;;;;;;;;;;;;;;;;;5034176;28;19910;-74
2022/06/14 03:08:35;;;;;;;;;;;;;;;;;;5034415;28;19932;-73
2022/06/14 03:11:01;;;;;;;;;;;;;;;;;;5034394;28;19916;-73
2022/06/14 03:13:27;;;;;;;;;;;;;;;;;;5034071;28;19909;-73
2022/06/14 03:15:53;;;;;;;;;;;;;;;;;;5034273;28;19955;-73
2022/06/14 03:18:19;;;;;;;;;;;;;;;;;;5034015;28;19913;-73
2022/06/14 03:20:45;;;;;;;;;;;;;;;;;;5033966;28;20251;-73
2022/06/14 03:23:11;;;;;;;;;;;;;;;;;;5033873;28;19921;-72
2022/06/14 03:25:37;;;;;;;;;;;;;;;;;;5034137;28;19914;-74
2022/06/14 03:28:03;;;;;;;;;;;;;;;;;;5033889;28;19909;-73
2022/06/14 03:30:29;;;;;;;;;;;;;;;;;;5034446;28;19909;-73
2022/06/14 03:32:55;;;;;;;;;;;;;;;;;;5032478;28;19959;-73
2022/06/14 03:35:21;;;;;;;;;;;;;;;;;;5033775;28;19909;-73
2022/06/14 03:37:47;;;;;;;;;;;;;;;;;;5033916;28;19988;-74
2022/06/14 03:40:13;;;;;;;;;;;;;;;;;;5033558;28;20380;-74
2022/06/14 03:42:39;;;;;;;;;;;;;;;;;;5033923;28;20284;-74
2022/06/14 03:45:05;;;;;;;;;;;;;;;;;;5033694;28;19913;-73
2022/06/14 03:47:31;;;;;;;;;;;;;;;;;;5033944;28;19909;-73
2022/06/14 03:49:56;;;;;;;;;;;;;;;;;;5033614;28;20487;-73
2022/06/14 03:52:22;;;;;;;;;;;;;;;;;;5034155;28;20358;-73
2022/06/14 03:54:48;;;;;;;;;;;;;;;;;;5033581;28;19913;-75
2022/06/14 03:57:14;;;;;;;;;;;;;;;;;;5033792;28;20403;-73
2022/06/14 03:59:40;;;;;;;;;;;;;;;;;;5033516;28;19915;-73
2022/06/14 04:02:06;;;;;;;;;;;;;;;;;;5033430;28;19909;-73
2022/06/14 04:04:32;;;;;;;;;;;;;;;;;;5034028;28;20375;-74
2022/06/14 04:06:58;;;;;;;;;;;;;;;;;;5033479;28;20141;-73
2022/06/14 04:09:23;;;;;;;;;;;;;;;;;;5033462;28;19917;-74
2022/06/14 04:11:50;;;;;;;;;;;;;;;;;;5033750;28;19944;-73
2022/06/14 04:14:15;;;;;;;;;;;;;;;;;;5034255;28;19909;-73
2022/06/14 04:16:41;;;;;;;;;;;;;;;;;;5037672;28;19909;-74
2022/06/14 04:19:07;;;;;;;;;;;;;;;;;;5037255;28;19909;-75
2022/06/14 04:21:33;;;;;;;;;;;;;;;;;;5037288;28;19917;-73
2022/06/14 04:23:59;;;;;;;;;;;;;;;;;;5037143;28;19913;-74
2022/06/14 04:26:25;;;;;;;;;;;;;;;;;;5037179;28;19909;-73
2022/06/14 04:28:51;;;;;;;;;;;;;;;;;;5037094;28;19916;-74
2022/06/14 04:31:17;;;;;;;;;;;;;;;;;;5037083;28;19909;-73
2022/06/14 04:33:43;;;;;;;;;;;;;;;;;;5037038;28;20000;-74
2022/06/14 04:36:08;;;;;;;;;;;;;;;;;;5035684;28;19913;-73
2022/06/14 04:38:34;;;;;;;;;;;;;;;;;;5037156;28;19963;-74
2022/06/14 04:41:00;;;;;;;;;;;;;;;;;;5035360;28;19924;-73
2022/06/14 04:43:26;;;;;;;;;;;;;;;;;;5037307;28;19964;-73
2022/06/14 04:45:56;;;;;;;;;;;;;;;;;;5036849;28;19909;-73
2022/06/14 04:48:22;;;;;;;;;;;;;;;;;;5036749;28;19909;-74
2022/06/14 04:50:48;;;;;;;;;;;;;;;;;;5036725;28;19913;-73
2022/06/14 04:53:14;;;;;;;;;;;;;;;;;;5036635;28;19909;-73
2022/06/14 04:55:40;;;;;;;;;;;;;;;;;;5037174;28;20276;-74
2022/06/14 04:58:06;;;;;;;;;;;;;;;;;;5036554;28;20392;-74
2022/06/14 05:00:32;;;;;;;;;;;;;;;;;;5036506;28;19909;-73
2022/06/14 05:02:57;;;;;;;;;;;;;;;;;;5036675;28;19991;-73
2022/06/14 05:05:23;;;;;;;;;;;;;;;;;;5036434;28;19956;-73
2022/06/14 05:07:49;;;;;;;;;;;;;;;;;;5036697;28;19932;-73
2022/06/14 05:10:15;;;;;;;;;;;;;;;;;;5036378;28;19992;-73
2022/06/14 05:12:41;;;;;;;;;;;;;;;;;;5036330;28;19909;-73
2022/06/14 05:15:07;;;;;;;;;;;;;;;;;;5036271;28;19909;-73
2022/06/14 05:17:33;;;;;;;;;;;;;;;;;;5036500;28;19909;-73
2022/06/14 05:19:59;;;;;;;;;;;;;;;;;;5036436;28;20373;-75
2022/06/14 05:22:25;;;;;;;;;;;;;;;;;;5036333;28;19913;-74
2022/06/14 05:24:50;;;;;;;;;;;;;;;;;;5036077;28;19909;-74
2022/06/14 05:27:16;;;;;;;;;;;;;;;;;;5035213;28;19963;-74
2022/06/14 05:29:42;;;;;;;;;;;;;;;;;;5036266;28;20042;-72
2022/06/14 05:32:08;;;;;;;;;;;;;;;;;;5034659;28;20393;-74
2022/06/14 05:34:34;;;;;;;;;;;;;;;;;;5036200;28;19909;-74
2022/06/14 05:37:00;;;;;;;;;;;;;;;;;;5035831;28;19932;-74
2022/06/14 05:39:26;;;;;;;;;;;;;;;;;;5035811;28;19909;-74
2022/06/14 05:41:52;;;;;;;;;;;;;;;;;;5035565;28;19924;-73
2022/06/14 05:44:18;;;;;;;;;;;;;;;;;;5036199;28;20011;-74
2022/06/14 05:46:44;;;;;;;;;;;;;;;;;;5035881;28;19947;-74
2022/06/14 05:49:10;;;;;;;;;;;;;;;;;;5034364;28;19986;-73
2022/06/14 05:51:36;;;;;;;;;;;;;;;;;;5035854;28;19909;-74
2022/06/14 05:54:01;;;;;;;;;;;;;;;;;;5035780;28;20039;-74
2022/06/14 05:56:31;;;;;;;;;;;;;;;;;;5035496;28;19909;-73
2022/06/14 05:58:57;;;;;;;;;;;;;;;;;;5036016;28;19909;-74
2022/06/14 06:01:22;;;;;;;;;;;;;;;;;;5035421;28;19909;-74
2022/06/14 06:03:48;;;;;;;;;;;;;;;;;;5035550;28;20327;-72
2022/06/14 06:06:14;;;;;;;;;;;;;;;;;;5035592;28;19909;-74
2022/06/14 06:08:40;;;;;;;;;;;;;;;;;;5035308;28;19909;-73
2022/06/14 06:11:06;;;;;;;;;;;;;;;;;;5035226;28;20451;-73
2022/06/14 06:13:32;;;;;;;;;;;;;;;;;;5035720;28;20345;-73
2022/06/14 06:15:58;;;;;;;;;;;;;;;;;;5035134;28;19913;-74
2022/06/14 06:18:25;;;;;;;;;;;;;;;;;;5035347;28;19909;-74
2022/06/14 06:20:51;;;;;;;;;;;;;;;;;;5034005;28;19916;-72
2022/06/14 06:23:17;;;;;;;;;;;;;;;;;;5035187;28;19913;-75
2022/06/14 06:25:43;;;;;;;;;;;;;;;;;;5035231;28;20364;-72
2022/06/14 06:28:09;;;;;;;;;;;;;;;;;;5034900;28;19966;-74
2022/06/14 06:30:35;;;;;;;;;;;;;;;;;;5034870;28;20000;-75
2022/06/14 06:33:01;;;;;;;;;;;;;;;;;;5035328;28;20383;-74
2022/06/14 06:35:27;;;;;;;;;;;;;;;;;;5034741;28;20344;-73
2022/06/14 06:37:52;;;;;;;;;;;;;;;;;;5035171;28;19909;-73
2022/06/14 06:40:18;;;;;;;;;;;;;;;;;;5034476;28;19948;-74
2022/06/14 06:42:44;;;;;;;;;;;;;;;;;;5035123;28;20351;-73
2022/06/14 06:45:11;;;;;;;;;;;;;;;;;;5034865;28;19916;-73
2022/06/14 06:47:37;;;;;;;;;;;;;;;;;;5034814;28;20365;-74
2022/06/14 06:50:03;;;;;;;;;;;;;;;;;;5034771;28;19963;-74
2022/06/14 06:52:29;;;;;;;;;;;;;;;;;;5033149;28;20007;-74
2022/06/14 06:54:54;;;;;;;;;;;;;;;;;;5034360;28;19909;-73
2022/06/14 06:57:20;;;;;;;;;;;;;;;;;;5034939;28;20348;-75
2022/06/14 06:59:46;;;;;;;;;;;;;;;;;;5034600;28;19909;-74
2022/06/14 07:02:12;;;;;;;;;;;;;;;;;;5034231;28;20281;-75
2022/06/14 07:07:22;;;;;;;;;;;;;;;;;;5033926;28;20014;-74
2022/06/14 07:09:48;;;;;;;;;;;;;;;;;;5034136;28;20392;-74
2022/06/14 07:12:14;;;;;;;;;;;;;;;;;;5034103;28;19971;-74
2022/06/14 07:14:40;;;;;;;;;;;;;;;;;;5034352;28;19916;-75
2022/06/14 07:17:06;;;;;;;;;;;;;;;;;;5032731;28;20375;-74
2022/06/14 07:19:32;;;;;;;;;;;;;;;;;;5034291;28;19916;-75
2022/06/14 07:21:58;;;;;;;;;;;;;;;;;;5034011;28;20316;-75
2022/06/14 07:24:24;;;;;;;;;;;;;;;;;;5033927;28;19959;-74
2022/06/14 07:26:49;;;;;;;;;;;;;;;;;;5032479;28;19983;-73
2022/06/14 07:29:15;;;;;;;;;;;;;;;;;;5034424;28;19999;-74
2022/06/14 07:31:41;;;;;;;;;;;;;;;;;;5033783;28;19916;-75
2022/06/14 07:34:07;;;;;;;;;;;;;;;;;;5032541;28;19909;-76
2022/06/14 07:36:33;;;;;;;;;;;;;;;;;;5034048;28;19909;-73
2022/06/14 07:38:59;;;;;;;;;;;;;;;;;;5033617;28;19924;-74
2022/06/14 07:41:25;;;;;;;;;;;;;;;;;;5033540;28;19922;-75
2022/06/14 07:43:51;;;;;;;;;;;;;;;;;;5033647;28;19924;-73
2022/06/14 07:46:17;;;;;;;;;;;;;;;;;;5034256;28;19952;-75
2022/06/14 07:48:45;;;;;;;;;;;;;;;;;;5034630;28;19915;-74
2022/06/14 07:51:11;;;;;;;;;;;;;;;;;;5040267;28;19959;-75
2022/06/14 07:53:37;;;;;;;;;;;;;;;;;;5040790;28;19913;-75
2022/06/14 07:56:03;;;;;;;;;;;;;;;;;;5040217;28;19909;-73
2022/06/14 07:58:30;;;;;;;;;;;;;;;;;;5040762;28;19956;-75
2022/06/14 08:01:09;;;;;;;;;;;;;;;;;;5040157;28;19909;-75
2022/06/14 08:03:36;;;;;;;;;;;;;;;;;;5040647;28;20353;-74
2022/06/14 08:06:02;;;;;;;;;;;;;;;;;;5040040;28;19909;-75
2022/06/14 08:08:28;;;;;;;;;;;;;;;;;;5040323;28;20430;-76
2022/06/14 08:10:54;;;;;;;;;;;;;;;;;;5040043;28;20536;-75
2022/06/14 08:13:19;;;;;;;;;;;;;;;;;;5040021;28;19909;-75
2022/06/14 08:15:45;;;;;;;;;;;;;;;;;;5040028;28;19909;-75
2022/06/14 08:18:11;;;;;;;;;;;;;;;;;;5038761;28;19916;-74
2022/06/14 08:20:37;;;;;;;;;;;;;;;;;;5038753;28;19916;-74
2022/06/14 08:23:03;;;;;;;;;;;;;;;;;;5040164;28;20284;-74
2022/06/14 08:25:29;;;;;;;;;;;;;;;;;;5039958;28;19913;-75
2022/06/14 08:27:55;;;;;;;;;;;;;;;;;;5039911;28;19909;-74
2022/06/14 08:30:22;;;;;;;;;;;;;;;;;;5040177;28;19913;-75
2022/06/14 08:32:48;;;;;;;;;;;;;;;;;;5040194;28;19909;-75
2022/06/14 08:35:14;;;;;;;;;;;;;;;;;;5040107;28;20425;-74
2022/06/14 08:37:42;;;;;;;;;;;;;;;;;;5039306;28;20220;-74
2022/06/14 08:40:08;;;;;;;;;;;;;;;;;;5038009;28;19996;-74
2022/06/14 08:42:34;;;;;;;;;;;;;;;;;;5039853;28;20007;-75
2022/06/14 08:45:00;;;;;;;;;;;;;;;;;;5040042;28;19931;-75
2022/06/14 08:47:26;;;;;;;;;;;;;;;;;;5039762;28;20339;-77
2022/06/14 08:49:52;;;;;;;;;;;;;;;;;;5038740;28;19955;-75
2022/06/14 08:52:18;;;;;;;;;;;;;;;;;;5038608;28;19909;-74
2022/06/14 08:54:44;;;;;;;;;;;;;;;;;;5039809;28;20381;-74
2022/06/14 08:57:09;;;;;;;;;;;;;;;;;;5039856;28;19917;-73
2022/06/14 08:59:35;;;;;;;;;;;;;;;;;;5039610;28;19909;-73
2022/06/14 09:02:01;;;;;;;;;;;;;;;;;;5035549;28;19925;-74
2022/06/14 09:04:27;;;;;;;;;;;;;;;;;;5036161;28;19995;-71
2022/06/14 09:06:53;;;;;;;;;;;;;;;;;;5036334;28;19909;-74
2022/06/14 09:09:19;;;;;;;;;;;;;;;;;;5035500;28;19913;-74
2022/06/14 09:11:45;;;;;;;;;;;;;;;;;;5034926;28;20384;-74
2022/06/14 09:14:11;;;;;;;;;;;;;;;;;;5036432;28;19909;-73
2022/06/14 09:16:37;;;;;;;;;;;;;;;;;;5036244;28;19913;-73
2022/06/14 09:19:03;;;;;;;;;;;;;;;;;;5036207;28;20293;-74
2022/06/14 09:21:29;;;;;;;;;;;;;;;;;;5036190;28;19943;-75
2022/06/14 09:23:55;;;;;;;;;;;;;;;;;;5036048;28;20396;-72
2022/06/14 09:26:21;;;;;;;;;;;;;;;;;;5036098;28;19916;-74
2022/06/14 09:28:46;;;;;;;;;;;;;;;;;;5036312;28;19975;-73
2022/06/14 09:31:12;;;;;;;;;;;;;;;;;;5036278;28;19915;-73
2022/06/14 09:33:38;;;;;;;;;;;;;;;;;;5036488;28;19913;-74
2022/06/14 09:36:04;;;;;;;;;;;;;;;;;;5035897;28;19909;-72
2022/06/14 09:38:30;;;;;;;;;;;;;;;;;;5035803;28;19916;-73
2022/06/14 09:40:56;;;;;;;;;;;;;;;;;;5035654;28;20302;-73
2022/06/14 09:43:22;;;;;;;;;;;;;;;;;;5035721;28;19924;-73
2022/06/14 09:45:48;;;;;;;;;;;;;;;;;;5035768;28;20364;-73
2022/06/14 09:48:14;;;;;;;;;;;;;;;;;;5035749;28;19909;-73
2022/06/14 09:50:40;;;;;;;;;;;;;;;;;;5036088;28;19909;-74
2022/06/14 09:53:06;;;;;;;;;;;;;;;;;;5035844;28;20323;-73
2022/06/14 09:55:32;;;;;;;;;;;;;;;;;;5035834;28;19936;-73
2022/06/14 09:57:58;;;;;;;;;;;;;;;;;;5035497;28;19959;-73
2022/06/14 10:00:24;;;;;;;;;;;;;;;;;;5036055;28;20373;-73
2022/06/14 10:02:49;;;;;;;;;;;;;;;;;;5034091;28;19919;-73
2022/06/14 10:05:15;;;;;;;;;;;;;;;;;;5035186;28;20335;-74
2022/06/14 10:07:41;;;;;;;;;;;;;;;;;;5034998;28;19909;-74
2022/06/14 10:10:08;;;;;;;;;;;;;;;;;;5034526;28;19916;-73
2022/06/14 10:12:34;;;;;;;;;;;;;;;;;;5034400;28;19909;-72
2022/06/14 10:14:59;;;;;;;;;;;;;;;;;;5034772;28;19916;-73
2022/06/14 10:17:25;;;;;;;;;;;;;;;;;;5034733;28;19910;-74
2022/06/14 10:19:51;;;;;;;;;;;;;;;;;;5033389;28;19959;-74
2022/06/14 10:22:17;;;;;;;;;;;;;;;;;;5034569;28;19936;-73
2022/06/14 10:24:43;;;;;;;;;;;;;;;;;;5034805;28;20280;-74
2022/06/14 10:29:54;;;;;;;;;;;;;;;;;;5034672;28;20014;-74
2022/06/14 10:32:20;;;;;;;;;;;;;;;;;;5034896;28;19999;-74
2022/06/14 10:34:46;;;;;;;;;;;;;;;;;;5035327;28;20342;-73
2022/06/14 10:37:11;;;;;;;;;;;;;;;;;;5035015;28;19909;-73
2022/06/14 10:39:37;;;;;;;;;;;;;;;;;;5034705;28;19909;-73
2022/06/14 10:42:03;;;;;;;;;;;;;;;;;;5034308;28;19917;-73
2022/06/14 10:44:29;;;;;;;;;;;;;;;;;;5034818;28;19921;-73
2022/06/14 10:46:55;;;;;;;;;;;;;;;;;;5034604;28;20381;-72
2022/06/14 10:49:21;;;;;;;;;;;;;;;;;;5034528;28;19909;-72
2022/06/14 10:51:47;;;;;;;;;;;;;;;;;;5035033;28;19909;-73
2022/06/14 10:54:15;;;;;;;;;;;;;;;;;;5034440;28;19909;-73
2022/06/14 10:56:41;;;;;;;;;;;;;;;;;;5034993;28;20373;-73
2022/06/14 10:59:07;;;;;;;;;;;;;;;;;;5034327;28;19909;-73
2022/06/14 11:01:33;;;;;;;;;;;;;;;;;;5034597;28;19916;-74
2022/06/14 11:03:59;;;;;;;;;;;;;;;;;;5034507;28;19917;-72
2022/06/14 11:06:25;;;;;;;;;;;;;;;;;;5034239;28;19917;-75
2022/06/14 11:08:51;;;;;;;;;;;;;;;;;;5034470;28;19909;-74
2022/06/14 11:11:17;;;;;;;;;;;;;;;;;;5034134;28;19909;-73
2022/06/14 11:13:43;;;;;;;;;;;;;;;;;;5034663;28;19915;-74
2022/06/14 11:16:09;;;;;;;;;;;;;;;;;;5032789;28;20258;-72
2022/06/14 11:18:35;;;;;;;;;;;;;;;;;;5034067;28;19948;-71
2022/06/14 11:21:01;;;;;;;;;;;;;;;;;;5034283;28;19932;-73
2022/06/14 11:23:27;;;;;;;;;;;;;;;;;;5033803;28;19967;-75
2022/06/14 11:25:53;;;;;;;;;;;;;;;;;;5034250;28;19913;-74
2022/06/14 11:28:19;;;;;;;;;;;;;;;;;;5033880;28;20016;-73
2022/06/14 11:30:45;;;;;;;;;;;;;;;;;;5033835;28;19932;-73
2022/06/14 11:33:11;;;;;;;;;;;;;;;;;;5032546;28;19909;-73
2022/06/14 11:35:37;;;;;;;;;;;;;;;;;;5033846;28;19909;-72
2022/06/14 11:38:03;;;;;;;;;;;;;;;;;;5033951;28;19916;-74
2022/06/14 11:40:28;;;;;;;;;;;;;;;;;;5033574;28;19913;-74
2022/06/14 11:42:54;;;;;;;;;;;;;;;;;;5033688;28;19944;-73
2022/06/14 11:45:20;;;;;;;;;;;;;;;;;;5034004;28;19995;-74
2022/06/14 11:47:46;;;;;;;;;;;;;;;;;;5033501;28;19909;-73
2022/06/14 11:50:12;;;;;;;;;;;;;;;;;;5032359;28;20353;-74
2022/06/14 11:52:38;;;;;;;;;;;;;;;;;;5033608;28;19916;-74
2022/06/14 11:55:04;;;;;;;;;;;;;;;;;;5034211;28;19909;-73
2022/06/14 11:57:30;;;;;;;;;;;;;;;;;;5033604;28;19909;-73
2022/06/14 11:59:56;;;;;;;;;;;;;;;;;;5034150;28;20468;-74
2022/06/14 12:02:22;;;;;;;;;;;;;;;;;;5032194;28;19963;-72
2022/06/14 12:04:47;;;;;;;;;;;;;;;;;;5032260;28;20357;-75
2022/06/14 12:07:13;;;;;;;;;;;;;;;;;;5033517;28;20316;-74
2022/06/14 12:09:39;;;;;;;;;;;;;;;;;;5033479;28;19917;-73
2022/06/14 12:12:05;;;;;;;;;;;;;;;;;;5033681;28;19963;-74
2022/06/14 12:14:31;;;;;;;;;;;;;;;;;;5033410;28;19909;-75
2022/06/14 12:16:57;;;;;;;;;;;;;;;;;;5033606;28;19909;-73
2022/06/14 12:19:23;;;;;;;;;;;;;;;;;;5033374;28;19916;-75
2022/06/14 12:21:49;;;;;;;;;;;;;;;;;;5033420;28;20344;-74
2022/06/14 12:24:17;;;;;;;;;;;;;;;;;;5033567;28;19913;-74
2022/06/14 12:26:43;;;;;;;;;;;;;;;;;;5033377;28;19910;-73
2022/06/14 12:29:09;;;;;;;;;;;;;;;;;;5033312;28;19955;-72
2022/06/14 12:31:35;;;;;;;;;;;;;;;;;;5033335;28;19917;-74
2022/06/14 12:34:01;;;;;;;;;;;;;;;;;;5033240;28;20430;-75
2022/06/14 12:36:27;;;;;;;;;;;;;;;;;;5036535;28;20007;-72
2022/06/14 12:38:53;;;;;;;;;;;;;;;;;;5036914;28;20361;-74
2022/06/14 12:41:19;;;;;;;;;;;;;;;;;;5036775;28;19921;-74
2022/06/14 12:43:45;;;;;;;;;;;;;;;;;;5036827;28;20467;-73
2022/06/14 12:46:11;;;;;;;;;;;;;;;;;;5036834;28;19909;-74
2022/06/14 12:48:38;;;;;;;;;;;;;;;;;;5037104;28;19909;-74
2022/06/14 12:51:04;;;;;;;;;;;;;;;;;;5036786;28;19915;-74
2022/06/14 12:53:30;;;;;;;;;;;;;;;;;;5037008;28;20003;-73
2022/06/14 12:55:56;;;;;;;;;;;;;;;;;;5036729;28;19916;-73
2022/06/14 12:58:22;;;;;;;;;;;;;;;;;;5036878;28;19913;-76
2022/06/14 13:00:48;;;;;;;;;;;;;;;;;;5036565;28;20258;-73
2022/06/14 13:03:13;;;;;;;;;;;;;;;;;;5036761;28;19963;-75
2022/06/14 13:05:39;;;;;;;;;;;;;;;;;;5036526;28;19968;-74
2022/06/14 13:08:05;;;;;;;;;;;;;;;;;;5036735;28;19913;-74
2022/06/14 13:10:31;;;;;;;;;;;;;;;;;;5035165;28;20387;-74
2022/06/14 13:12:57;;;;;;;;;;;;;;;;;;5036332;28;19916;-75
2022/06/14 13:15:23;;;;;;;;;;;;;;;;;;5036312;28;19909;-74
2022/06/14 13:17:49;;;;;;;;;;;;;;;;;;5034995;28;19928;-74
2022/06/14 13:20:15;;;;;;;;;;;;;;;;;;5036245;28;19909;-73
2022/06/14 13:22:43;;;;;;;;;;;;;;;;;;5036647;28;20369;-75
2022/06/14 13:25:09;;;;;;;;;;;;;;;;;;5036103;28;19920;-71
2022/06/14 13:27:34;;;;;;;;;;;;;;;;;;5036680;28;20296;-73
2022/06/14 13:30:00;;;;;;;;;;;;;;;;;;5034803;28;19959;-75
2022/06/14 13:32:27;;;;;;;;;;;;;;;;;;5036348;28;19909;-73
2022/06/14 13:34:52;;;;;;;;;;;;;;;;;;5036250;28;19909;-75
2022/06/14 13:37:18;;;;;;;;;;;;;;;;;;5036533;28;19909;-74
2022/06/14 13:39:44;;;;;;;;;;;;;;;;;;5034550;28;19916;-74
2022/06/14 13:42:10;;;;;;;;;;;;;;;;;;5035416;28;20281;-74
2022/06/14 13:44:36;;;;;;;;;;;;;;;;;;5035732;28;19924;-74
2022/06/14 13:47:02;;;;;;;;;;;;;;;;;;5035320;28;19959;-73
2022/06/14 13:49:28;;;;;;;;;;;;;;;;;;5035662;28;20328;-74
2022/06/14 13:51:54;;;;;;;;;;;;;;;;;;5035912;28;19949;-74
2022/06/14 13:54:20;;;;;;;;;;;;;;;;;;5035628;28;19931;-74
2022/06/14 13:56:46;;;;;;;;;;;;;;;;;;5036100;28;19910;-72
2022/06/14 13:59:12;;;;;;;;;;;;;;;;;;5035476;28;19909;-73
2022/06/14 14:01:37;;;;;;;;;;;;;;;;;;5035740;28;19992;-75
2022/06/14 14:04:03;;;;;;;;;;;;;;;;;;5035612;28;20369;-74
2022/06/14 14:06:29;;;;;;;;;;;;;;;;;;5035408;28;19920;-74
2022/06/14 14:08:55;;;;;;;;;;;;;;;;;;5035324;28;19959;-76
2022/06/14 14:11:21;;;;;;;;;;;;;;;;;;5035827;28;20269;-73
2022/06/14 14:13:47;;;;;;;;;;;;;;;;;;5035519;28;19909;-73
2022/06/14 14:16:13;;;;;;;;;;;;;;;;;;5035172;28;20375;-74
2022/06/14 14:18:39;;;;;;;;;;;;;;;;;;5035704;28;20384;-75
2022/06/14 14:21:05;;;;;;;;;;;;;;;;;;5035057;28;19909;-74
2022/06/14 14:23:31;;;;;;;;;;;;;;;;;;5035242;28;19920;-75
2022/06/14 14:25:56;;;;;;;;;;;;;;;;;;5035018;28;19909;-73
2022/06/14 14:28:22;;;;;;;;;;;;;;;;;;5035251;28;19909;-74
2022/06/14 14:30:48;;;;;;;;;;;;;;;;;;5034865;28;19963;-74
2022/06/14 14:33:15;;;;;;;;;;;;;;;;;;5035119;28;19909;-73
2022/06/14 14:35:41;;;;;;;;;;;;;;;;;;5034789;28;19909;-73
2022/06/14 14:38:07;;;;;;;;;;;;;;;;;;5034707;28;20005;-77
2022/06/14 14:40:32;;;;;;;;;;;;;;;;;;5034472;28;19943;-74
2022/06/14 14:42:58;;;;;;;;;;;;;;;;;;5033044;28;19925;-75
2022/06/14 14:45:24;;;;;;;;;;;;;;;;;;5035154;28;20269;-75
2022/06/14 14:47:50;;;;;;;;;;;;;;;;;;5034527;28;19916;-76
2022/06/14 14:50:16;;;;;;;;;;;;;;;;;;5034560;28;19910;-73
2022/06/14 14:52:43;;;;;;;;;;;;;;;;;;5034726;28;19909;-74
2022/06/14 14:55:08;;;;;;;;;;;;;;;;;;5034744;28;20134;-75
2022/06/14 14:57:34;;;;;;;;;;;;;;;;;;5034477;28;20407;-74
2022/06/14 15:00:00;;;;;;;;;;;;;;;;;;5033458;28;19916;-74
2022/06/14 15:05:20;;;;;;;;;;;;;;;;;;5034292;28;20327;-73
2022/06/14 15:07:46;;;;;;;;;;;;;;;;;;5032962;28;19916;-74
2022/06/14 15:10:12;;;;;;;;;;;;;;;;;;5034480;28;19913;-75
2022/06/14 15:12:38;;;;;;;;;;;;;;;;;;5034164;28;19959;-75
2022/06/14 15:15:04;;;;;;;;;;;;;;;;;;5034386;28;20004;-74
2022/06/14 15:19:54;;;;;;;;;;;;;;;;;;5032812;28;19952;-74
2022/06/14 15:20:25;;;;;;;;;;;;;;;;;;5033682;28;20012;-73
2022/06/14 15:22:52;;;;;;;;;;;;;;;;;;5032680;28;19971;-75
2022/06/14 15:25:17;;;;;;;;;;;;;;;;;;5034011;28;19909;-75
2022/06/14 15:27:43;;;;;;;;;;;;;;;;;;5034231;28;19975;-74
2022/06/14 15:30:09;;;;;;;;;;;;;;;;;;5033906;28;19913;-74
2022/06/14 15:32:35;;;;;;;;;;;;;;;;;;5034163;28;19952;-74
2022/06/14 15:35:01;;;;;;;;;;;;;;;;;;5033864;28;19909;-74
2022/06/14 15:37:27;;;;;;;;;;;;;;;;;;5034039;28;19910;-77
2022/06/14 15:39:53;;;;;;;;;;;;;;;;;;5034349;28;20376;-75
2022/06/14 15:42:19;;;;;;;;;;;;;;;;;;5033564;28;20425;-75
2022/06/14 15:44:45;;;;;;;;;;;;;;;;;;5033690;28;19910;-74
2022/06/14 15:47:11;;;;;;;;;;;;;;;;;;5033948;28;19932;-75
2022/06/14 15:49:36;;;;;;;;;;;;;;;;;;5033929;28;19909;-72
2022/06/14 15:52:02;;;;;;;;;;;;;;;;;;5032370;28;19909;-74
2022/06/14 15:54:28;;;;;;;;;;;;;;;;;;5034196;28;20008;-75
2022/06/14 15:56:54;;;;;;;;;;;;;;;;;;5033618;28;19916;-73
2022/06/14 15:59:20;;;;;;;;;;;;;;;;;;5034140;28;20015;-75
2022/06/14 16:01:46;;;;;;;;;;;;;;;;;;5034413;28;20310;-74
2022/06/14 16:04:12;;;;;;;;;;;;;;;;;;5033480;28;19963;-73
2022/06/14 16:06:38;;;;;;;;;;;;;;;;;;5033826;28;20061;-73
2022/06/14 16:09:04;;;;;;;;;;;;;;;;;;5033513;28;19917;-75
2022/06/14 16:11:30;;;;;;;;;;;;;;;;;;5035130;28;20357;-73
2022/06/14 16:13:55;;;;;;;;;;;;;;;;;;5037763;28;19916;-73
2022/06/14 16:16:21;;;;;;;;;;;;;;;;;;5037418;28;19910;-74
2022/06/14 16:18:47;;;;;;;;;;;;;;;;;;5037344;28;19916;-74
2022/06/14 16:21:13;;;;;;;;;;;;;;;;;;5037603;28;19910;-73
2022/06/14 16:23:39;;;;;;;;;;;;;;;;;;5037550;28;19944;-73
2022/06/14 16:26:05;;;;;;;;;;;;;;;;;;5037268;28;19913;-73
2022/06/14 16:28:31;;;;;;;;;;;;;;;;;;5037489;28;19909;-74
2022/06/14 16:30:57;;;;;;;;;;;;;;;;;;5037452;28;19952;-75
2022/06/14 16:33:23;;;;;;;;;;;;;;;;;;5037683;28;19909;-74
2022/06/14 16:35:49;;;;;;;;;;;;;;;;;;5037096;28;19920;-74
2022/06/14 16:38:15;;;;;;;;;;;;;;;;;;5036970;28;19909;-74
2022/06/14 16:40:41;;;;;;;;;;;;;;;;;;5036769;28;19920;-75
2022/06/14 16:43:07;;;;;;;;;;;;;;;;;;5037167;28;19918;-73
2022/06/14 16:45:33;;;;;;;;;;;;;;;;;;5036910;28;20365;-74
2022/06/14 16:47:58;;;;;;;;;;;;;;;;;;5036875;28;19958;-72